createdAt,value
2022-10-11T00:01:53.757Z,4.00
2022-10-11T00:04:20.936Z,4.00
2022-10-11T00:06:48.272Z,4.00
2022-10-11T00:09:16.300Z,3.90
2022-10-11T00:11:43.773Z,3.90
2022-10-11T00:14:11.388Z,3.90
2022-10-11T00:16:44.596Z,3.80
2022-10-11T00:19:12.087Z,3.80
2022-10-11T00:21:39.598Z,3.70
2022-10-11T00:24:07.109Z,3.70
2022-10-11T00:26:34.447Z,3.60
2022-10-11T00:29:01.748Z,3.70
2022-10-11T00:31:33.252Z,3.70
2022-10-11T00:34:03.119Z,3.70
2022-10-11T00:36:30.341Z,3.80
2022-10-11T00:38:57.655Z,3.70
2022-10-11T00:41:24.843Z,3.90
2022-10-11T00:44:13.038Z,3.90
2022-10-11T00:46:43.745Z,4.00
2022-10-11T00:49:41.436Z,4.00
2022-10-11T00:52:20.747Z,4.00
2022-10-11T00:54:49.342Z,4.00
2022-10-11T00:57:22.996Z,4.10
2022-10-11T00:59:53.363Z,4.00
2022-10-11T01:02:21.369Z,4.00
2022-10-11T01:04:54.377Z,4.10
2022-10-11T01:07:34.456Z,4.10
2022-10-11T01:10:01.730Z,4.10
2022-10-11T01:12:31.240Z,4.20
2022-10-11T01:15:19.490Z,4.10
2022-10-11T01:18:28.414Z,4.20
2022-10-11T01:21:21.065Z,4.30
2022-10-11T01:24:10.204Z,4.30
2022-10-11T01:26:59.847Z,4.40
2022-10-11T01:29:35.523Z,4.50
2022-10-11T01:32:23.044Z,4.50
2022-10-11T01:35:02.002Z,4.60
2022-10-11T01:37:34.882Z,4.60
2022-10-11T01:40:08.311Z,4.60
2022-10-11T01:42:39.097Z,4.60
2022-10-11T01:45:09.651Z,4.60
2022-10-11T01:47:36.991Z,4.60
2022-10-11T01:50:04.629Z,4.60
2022-10-11T01:52:36.152Z,4.60
2022-10-11T01:55:31.020Z,4.60
2022-10-11T01:58:10.472Z,4.60
2022-10-11T02:01:02.266Z,4.60
2022-10-11T02:03:54.450Z,4.60
2022-10-11T02:06:59.763Z,4.60
2022-10-11T02:09:52.733Z,4.50
2022-10-11T02:12:34.546Z,4.50
2022-10-11T02:15:08.388Z,4.50
2022-10-11T02:17:45.264Z,4.50
2022-10-11T02:20:16.499Z,4.40
2022-10-11T02:22:47.178Z,4.40
2022-10-11T02:25:17.056Z,4.30
2022-10-11T02:27:47.993Z,4.20
2022-10-11T02:30:16.189Z,4.10
2022-10-11T02:32:46.680Z,4.10
2022-10-11T02:35:14.823Z,4.10
2022-10-11T02:37:44.153Z,4.00
2022-10-11T02:40:27.809Z,4.00
2022-10-11T02:43:19.514Z,4.00
2022-10-11T02:45:54.385Z,4.00
2022-10-11T02:48:23.668Z,4.00
2022-10-11T02:50:51.181Z,4.10
2022-10-11T02:53:18.377Z,4.10
2022-10-11T02:55:46.060Z,4.10
2022-10-11T02:58:13.269Z,4.10
2022-10-11T03:00:40.586Z,4.10
2022-10-11T03:03:07.806Z,4.20
2022-10-11T03:05:40.835Z,4.20
2022-10-11T03:08:10.202Z,4.30
2022-10-11T03:10:38.781Z,4.30
2022-10-11T03:13:06.209Z,4.40
2022-10-11T03:15:33.849Z,4.40
2022-10-11T03:18:01.047Z,4.40
2022-10-11T03:20:28.274Z,4.40
2022-10-11T03:22:55.450Z,4.40
2022-10-11T03:25:22.648Z,4.50
2022-10-11T03:27:49.897Z,4.50
2022-10-11T03:30:18.522Z,4.50
2022-10-11T03:32:46.133Z,4.50
2022-10-11T03:35:13.463Z,4.60
2022-10-11T03:37:40.703Z,4.60
2022-10-11T03:40:09.236Z,4.60
2022-10-11T03:42:37.299Z,4.50
2022-10-11T03:45:08.324Z,4.60
2022-10-11T03:47:37.269Z,4.60
2022-10-11T03:50:06.340Z,4.60
2022-10-11T03:52:33.793Z,4.60
2022-10-11T03:55:01.060Z,4.60
2022-10-11T03:57:28.363Z,4.60
2022-10-11T03:59:55.572Z,4.60
2022-10-11T04:02:23.118Z,4.60
2022-10-11T04:04:50.379Z,4.50
2022-10-11T04:07:17.533Z,4.50
2022-10-11T04:09:44.709Z,4.50
2022-10-11T04:12:11.935Z,4.50
2022-10-11T04:14:39.202Z,4.50
2022-10-11T04:17:06.651Z,4.50
2022-10-11T04:19:33.847Z,4.40
2022-10-11T04:22:01.090Z,4.40
2022-10-11T04:24:28.319Z,4.40
2022-10-11T04:26:55.463Z,4.40
2022-10-11T04:29:22.579Z,4.40
2022-10-11T04:31:49.791Z,4.40
2022-10-11T04:34:17.553Z,4.30
2022-10-11T04:36:49.622Z,4.30
2022-10-11T04:39:17.301Z,4.30
2022-10-11T04:41:44.516Z,4.30
2022-10-11T04:44:11.723Z,4.30
2022-10-11T04:46:38.945Z,4.30
2022-10-11T04:49:06.310Z,4.30
2022-10-11T04:51:34.013Z,4.20
2022-10-11T04:54:01.174Z,4.20
2022-10-11T04:56:29.167Z,4.20
2022-10-11T04:58:56.317Z,4.20
2022-10-11T05:01:23.638Z,4.20
2022-10-11T05:03:50.828Z,4.20
2022-10-11T05:06:18.050Z,4.20
2022-10-11T05:08:45.258Z,4.30
2022-10-11T05:11:16.010Z,4.30
2022-10-11T05:13:45.080Z,4.30
2022-10-11T05:16:13.255Z,4.30
2022-10-11T05:18:40.803Z,4.30
2022-10-11T05:21:25.052Z,4.40
2022-10-11T05:23:53.917Z,4.40
2022-10-11T05:26:21.833Z,4.40
2022-10-11T05:28:49.381Z,4.50
2022-10-11T05:31:17.395Z,4.50
2022-10-11T05:33:44.692Z,4.60
2022-10-11T05:36:12.330Z,4.70
2022-10-11T05:38:39.660Z,4.70
2022-10-11T05:41:09.506Z,4.80
2022-10-11T05:43:37.096Z,4.80
2022-10-11T05:46:04.723Z,4.90
2022-10-11T05:48:32.188Z,4.90
2022-10-11T05:51:04.096Z,4.90
2022-10-11T05:53:32.058Z,5.00
2022-10-11T05:56:00.101Z,5.10
2022-10-11T05:58:27.530Z,5.10
2022-10-11T06:00:57.119Z,5.20
2022-10-11T06:03:24.765Z,5.30
2022-10-11T06:05:56.536Z,5.50
2022-10-11T06:08:24.313Z,5.60
2022-10-11T06:10:51.564Z,5.70
2022-10-11T06:13:18.742Z,5.90
2022-10-11T06:15:45.891Z,6.00
2022-10-11T06:18:13.046Z,6.20
2022-10-11T06:20:40.283Z,6.30
2022-10-11T06:23:07.496Z,6.50
2022-10-11T06:25:34.718Z,6.60
2022-10-11T06:28:01.973Z,6.80
2022-10-11T06:30:29.285Z,7.00
2022-10-11T06:32:59.014Z,7.10
2022-10-11T06:35:28.623Z,7.10
2022-10-11T06:37:55.805Z,7.20
2022-10-11T06:40:23.074Z,7.20
2022-10-11T06:42:50.615Z,7.20
2022-10-11T06:45:17.857Z,7.20
2022-10-11T06:47:45.034Z,7.20
2022-10-11T06:50:13.535Z,7.20
2022-10-11T06:52:40.826Z,7.20
2022-10-11T06:55:08.429Z,7.20
2022-10-11T06:57:35.681Z,7.20
2022-10-11T07:00:03.127Z,7.30
2022-10-11T07:02:30.344Z,7.30
2022-10-11T07:04:57.661Z,7.40
2022-10-11T07:07:24.985Z,7.40
2022-10-11T07:09:52.154Z,7.50
2022-10-11T07:12:19.434Z,7.60
2022-10-11T07:14:46.595Z,7.60
2022-10-11T07:17:13.868Z,7.70
2022-10-11T07:19:41.055Z,7.70
2022-10-11T07:22:08.245Z,7.80
2022-10-11T07:24:35.494Z,7.80
2022-10-11T07:27:03.483Z,7.90
2022-10-11T07:29:30.705Z,7.90
2022-10-11T07:31:57.918Z,7.90
2022-10-11T07:34:25.138Z,8.00
2022-10-11T07:36:52.479Z,7.90
2022-10-11T07:39:19.656Z,8.00
2022-10-11T07:41:46.790Z,7.90
2022-10-11T07:44:15.066Z,8.00
2022-10-11T07:46:42.326Z,8.00
2022-10-11T07:49:09.629Z,8.10
2022-10-11T07:51:36.896Z,8.20
2022-10-11T07:54:07.203Z,8.30
2022-10-11T07:56:34.639Z,8.30
2022-10-11T07:59:05.358Z,8.40
2022-10-11T08:01:33.512Z,8.40
2022-10-11T08:04:00.964Z,8.40
2022-10-11T08:06:32.036Z,8.40
2022-10-11T08:09:01.406Z,8.40
2022-10-11T08:11:34.080Z,8.50
2022-10-11T08:14:02.372Z,8.40
2022-10-11T08:16:29.520Z,8.40
2022-10-11T08:18:57.356Z,8.40
2022-10-11T08:21:26.505Z,8.40
2022-10-11T08:23:53.816Z,8.30
2022-10-11T08:26:21.351Z,8.30
2022-10-11T08:28:49.312Z,8.30
2022-10-11T08:31:16.949Z,8.30
2022-10-11T08:33:44.960Z,8.30
2022-10-11T08:36:13.242Z,8.30
2022-10-11T08:38:41.058Z,8.30
2022-10-11T08:41:19.584Z,8.30
2022-10-11T08:44:13.043Z,8.20
2022-10-11T08:46:43.379Z,8.30
2022-10-11T08:49:13.415Z,8.20
2022-10-11T08:51:45.502Z,8.20
2022-10-11T08:54:12.640Z,8.10
2022-10-11T08:56:41.019Z,8.00
2022-10-11T08:59:13.939Z,8.00
2022-10-11T09:01:51.275Z,7.90
2022-10-11T09:04:19.135Z,7.90
2022-10-11T09:07:20.236Z,7.90
2022-10-11T09:10:00.011Z,7.80
2022-10-11T09:12:40.956Z,7.80
2022-10-11T09:15:09.138Z,7.80
2022-10-11T09:18:21.476Z,7.70
2022-10-11T09:21:08.458Z,7.70
2022-10-11T09:23:53.466Z,7.70
2022-10-11T09:26:30.050Z,7.60
2022-10-11T09:29:05.609Z,7.60
2022-10-11T09:31:33.754Z,7.60
2022-10-11T09:34:11.209Z,7.60
2022-10-11T09:36:50.446Z,7.60
2022-10-11T09:39:23.475Z,7.60
2022-10-11T09:42:07.131Z,7.70
2022-10-11T09:45:01.265Z,7.70
2022-10-11T09:47:31.200Z,7.80
2022-10-11T09:50:16.619Z,7.90
2022-10-11T09:52:58.460Z,8.00
2022-10-11T09:55:52.330Z,8.10
2022-10-11T09:58:38.723Z,8.20
2022-10-11T10:01:12.011Z,8.30
2022-10-11T10:03:44.350Z,8.40
2022-10-11T10:06:22.295Z,8.50
2022-10-11T10:08:50.838Z,8.50
2022-10-11T10:11:19.951Z,8.70
2022-10-11T10:13:59.302Z,8.80
2022-10-11T10:16:34.788Z,8.90
2022-10-11T10:19:07.650Z,9.00
2022-10-11T10:21:38.109Z,9.30
2022-10-11T10:24:33.362Z,9.50
2022-10-11T10:27:14.926Z,9.80
2022-10-11T10:29:42.266Z,10.00
2022-10-11T10:32:16.788Z,10.10
2022-10-11T10:35:02.462Z,10.10
2022-10-11T10:37:34.805Z,10.20
2022-10-11T10:40:09.313Z,10.20
2022-10-11T10:42:37.187Z,10.20
2022-10-11T10:45:11.172Z,10.30
2022-10-11T10:48:05.634Z,10.30
2022-10-11T10:51:30.067Z,10.50
2022-10-11T10:54:27.209Z,10.60
2022-10-11T10:57:00.168Z,10.60
2022-10-11T10:59:42.347Z,10.60
2022-10-11T11:02:39.138Z,10.50
2022-10-11T11:05:23.023Z,10.60
2022-10-11T11:07:54.725Z,10.80
2022-10-11T11:10:27.376Z,10.80
2022-10-11T11:13:16.479Z,10.80
2022-10-11T11:15:51.521Z,10.70
2022-10-11T11:18:51.841Z,10.70
2022-10-11T11:21:36.784Z,10.70
2022-10-11T11:24:43.726Z,10.70
2022-10-11T11:27:27.382Z,10.60
2022-10-11T11:30:12.219Z,10.60
2022-10-11T11:33:13.035Z,10.60
2022-10-11T11:35:40.222Z,10.50
2022-10-11T11:38:38.737Z,10.50
2022-10-11T11:41:15.414Z,10.50
2022-10-11T11:44:26.421Z,10.50
2022-10-11T11:47:17.972Z,10.40
2022-10-11T11:49:49.768Z,10.30
2022-10-11T11:52:28.768Z,10.20
2022-10-11T11:55:39.070Z,10.10
2022-10-11T11:58:27.703Z,10.10
2022-10-11T12:01:31.492Z,10.00
2022-10-11T12:04:31.712Z,10.00
2022-10-11T12:07:16.832Z,10.00
2022-10-11T12:09:52.931Z,10.10
2022-10-11T12:12:37.583Z,10.10
2022-10-11T12:15:10.494Z,10.10
2022-10-11T12:17:58.377Z,10.20
2022-10-11T12:20:30.242Z,10.30
2022-10-11T12:23:00.532Z,10.40
2022-10-11T12:25:28.728Z,10.40
2022-10-11T12:28:20.701Z,10.50
2022-10-11T12:30:47.919Z,10.50
2022-10-11T12:33:21.400Z,10.50
2022-10-11T12:35:56.017Z,10.60
2022-10-11T12:38:24.821Z,10.60
2022-10-11T12:41:17.196Z,10.60
2022-10-11T12:43:50.191Z,10.60
2022-10-11T12:46:58.180Z,10.50
2022-10-11T12:49:33.856Z,10.40
2022-10-11T12:52:21.724Z,10.40
2022-10-11T12:55:25.316Z,10.40
2022-10-11T12:58:06.290Z,10.30
2022-10-11T13:00:56.388Z,10.40
2022-10-11T13:03:38.715Z,10.40
2022-10-11T13:06:25.145Z,10.50
2022-10-11T13:09:09.851Z,10.70
2022-10-11T13:11:43.699Z,10.80
2022-10-11T13:14:24.770Z,10.90
2022-10-11T13:16:58.795Z,10.80
2022-10-11T13:19:27.091Z,10.70
2022-10-11T13:21:57.952Z,10.70
2022-10-11T13:24:28.098Z,10.60
2022-10-11T13:26:56.833Z,10.60
2022-10-11T13:29:30.568Z,10.50
2022-10-11T13:31:58.659Z,10.50
2022-10-11T13:34:26.225Z,10.50
2022-10-11T13:36:58.210Z,10.50
2022-10-11T13:39:38.151Z,10.50
2022-10-11T13:42:10.384Z,10.50
2022-10-11T13:44:38.835Z,10.50
2022-10-11T13:47:06.492Z,10.50
2022-10-11T13:49:40.329Z,10.40
2022-10-11T13:52:23.027Z,10.40
2022-10-11T13:55:11.701Z,10.40
2022-10-11T13:57:47.160Z,10.40
2022-10-11T14:00:20.360Z,10.40
2022-10-11T14:03:04.111Z,10.40
2022-10-11T14:05:35.517Z,10.50
2022-10-11T14:08:23.358Z,10.50
2022-10-11T14:10:56.410Z,10.60
2022-10-11T14:13:37.080Z,10.70
2022-10-11T14:16:04.731Z,10.80
2022-10-11T14:18:43.761Z,10.90
2022-10-11T14:21:34.930Z,10.90
2022-10-11T14:24:08.280Z,10.90
2022-10-11T14:26:41.101Z,10.90
2022-10-11T14:29:22.031Z,10.90
2022-10-11T14:31:49.780Z,10.80
2022-10-11T14:34:20.055Z,10.80
2022-10-11T14:36:48.404Z,10.70
2022-10-11T14:39:18.611Z,10.60
2022-10-11T14:41:46.123Z,10.50
2022-10-11T14:44:14.148Z,10.50
2022-10-11T14:46:41.711Z,10.40
2022-10-11T14:49:25.215Z,10.30
2022-10-11T14:51:53.724Z,10.20
2022-10-11T14:54:23.325Z,10.20
2022-10-11T14:56:52.280Z,10.10
2022-10-11T14:59:23.574Z,10.00
2022-10-11T15:01:54.537Z,9.90
2022-10-11T15:04:23.264Z,9.80
2022-10-11T15:06:51.652Z,9.80
2022-10-11T15:09:21.061Z,9.70
2022-10-11T15:11:50.098Z,9.60
2022-10-11T15:14:17.752Z,9.60
2022-10-11T15:16:44.917Z,9.50
2022-10-11T15:19:17.656Z,9.50
2022-10-11T15:21:45.392Z,9.40
2022-10-11T15:24:12.836Z,9.40
2022-10-11T15:26:40.740Z,9.30
2022-10-11T15:29:11.420Z,9.30
2022-10-11T15:31:39.615Z,9.20
2022-10-11T15:34:07.076Z,9.20
2022-10-11T15:36:34.675Z,9.20
2022-10-11T15:39:02.080Z,9.10
2022-10-11T15:41:29.437Z,9.10
2022-10-11T15:43:56.755Z,9.00
2022-10-11T15:46:24.054Z,9.00
2022-10-11T15:48:52.195Z,9.00
2022-10-11T15:51:19.995Z,9.00
2022-10-11T15:53:47.292Z,9.00
2022-10-11T15:56:17.403Z,9.00
2022-10-11T15:58:44.998Z,9.00
2022-10-11T16:01:19.035Z,9.00
2022-10-11T16:03:48.807Z,8.90
2022-10-11T16:06:17.016Z,8.90
2022-10-11T16:08:44.782Z,8.90
2022-10-11T16:11:12.693Z,8.90
2022-10-11T16:13:40.770Z,8.90
2022-10-11T16:16:09.717Z,8.90
2022-10-11T16:18:37.847Z,8.90
2022-10-11T16:21:10.238Z,8.90
2022-10-11T16:23:38.478Z,8.80
2022-10-11T16:26:08.531Z,8.80
2022-10-11T16:28:36.544Z,8.80
2022-10-11T16:31:17.053Z,8.80
2022-10-11T16:33:48.164Z,8.80
2022-10-11T16:36:33.132Z,8.70
2022-10-11T16:39:02.603Z,8.70
2022-10-11T16:41:29.822Z,8.70
2022-10-11T16:43:57.041Z,8.70
2022-10-11T16:46:24.458Z,8.70
2022-10-11T16:48:56.155Z,8.60
2022-10-11T16:51:24.538Z,8.60
2022-10-11T16:53:52.731Z,8.50
2022-10-11T16:56:22.770Z,8.50
2022-10-11T16:58:51.052Z,8.50
2022-10-11T17:01:18.673Z,8.50
2022-10-11T17:03:45.980Z,8.50
2022-10-11T17:06:13.203Z,8.50
2022-10-11T17:08:40.531Z,8.50
2022-10-11T17:11:07.953Z,8.50
2022-10-11T17:13:36.185Z,8.40
2022-10-11T17:16:04.225Z,8.40
2022-10-11T17:18:32.791Z,8.40
2022-10-11T17:21:08.493Z,8.40
2022-10-11T17:23:37.565Z,8.40
2022-10-11T17:26:11.231Z,8.40
2022-10-11T17:28:39.923Z,8.40
2022-10-11T17:31:08.434Z,8.40
2022-10-11T17:33:36.160Z,8.30
2022-10-11T17:36:36.193Z,8.30
2022-10-11T17:39:08.752Z,8.30
2022-10-11T17:41:37.791Z,8.20
2022-10-11T17:44:05.716Z,8.30
2022-10-11T17:46:33.846Z,8.20
2022-10-11T17:49:05.474Z,8.20
2022-10-11T17:51:34.231Z,8.20
2022-10-11T17:54:01.787Z,8.10
2022-10-11T17:56:35.084Z,8.10
2022-10-11T17:59:04.771Z,8.10
2022-10-11T18:01:32.183Z,8.00
2022-10-11T18:04:02.098Z,8.00
2022-10-11T18:06:32.277Z,7.90
2022-10-11T18:09:04.173Z,7.90
2022-10-11T18:11:31.820Z,7.80
2022-10-11T18:13:59.244Z,7.80
2022-10-11T18:16:28.794Z,7.80
2022-10-11T18:18:59.758Z,7.80
2022-10-11T18:21:31.368Z,7.80
2022-10-11T18:24:03.514Z,7.80
2022-10-11T18:26:31.224Z,7.80
2022-10-11T18:28:59.196Z,7.80
2022-10-11T18:31:30.142Z,7.80
2022-10-11T18:33:57.997Z,7.80
2022-10-11T18:36:28.260Z,7.70
2022-10-11T18:39:01.559Z,7.70
2022-10-11T18:41:33.017Z,7.60
2022-10-11T18:44:05.362Z,7.60
2022-10-11T18:46:33.450Z,7.60
2022-10-11T18:49:04.371Z,7.60
2022-10-11T18:51:34.425Z,7.60
2022-10-11T18:54:02.170Z,7.60
2022-10-11T18:56:31.237Z,7.60
2022-10-11T18:58:59.223Z,7.60
2022-10-11T19:01:35.559Z,7.60
2022-10-11T19:04:04.119Z,7.60
2022-10-11T19:06:33.979Z,7.50
2022-10-11T19:09:10.587Z,7.50
2022-10-11T19:11:38.169Z,7.50
2022-10-11T19:14:11.610Z,7.50
2022-10-11T19:16:41.973Z,7.50
2022-10-11T19:19:10.510Z,7.40
2022-10-11T19:21:38.045Z,7.40
2022-10-11T19:24:05.547Z,7.40
2022-10-11T19:26:35.208Z,7.40
2022-10-11T19:29:12.035Z,7.40
2022-10-11T19:31:55.319Z,7.40
2022-10-11T19:34:26.958Z,7.40
2022-10-11T19:36:55.495Z,7.40
2022-10-11T19:39:25.898Z,7.40
2022-10-11T19:41:53.118Z,7.30
2022-10-11T19:44:20.737Z,7.30
2022-10-11T19:46:52.371Z,7.30
2022-10-11T19:49:22.855Z,7.30
2022-10-11T19:51:50.167Z,7.30
2022-10-11T19:54:17.325Z,7.30
2022-10-11T19:56:45.048Z,7.20
2022-10-11T19:59:12.900Z,7.20
2022-10-11T20:01:41.310Z,7.10
2022-10-11T20:04:27.461Z,7.10
2022-10-11T20:06:58.688Z,7.00
2022-10-11T20:09:30.666Z,7.00
2022-10-11T20:11:58.329Z,7.00
2022-10-11T20:14:25.724Z,6.90
2022-10-11T20:16:53.175Z,6.90
2022-10-11T20:19:23.895Z,6.90
2022-10-11T20:21:55.307Z,6.90
2022-10-11T20:24:22.718Z,6.80
2022-10-11T20:26:49.820Z,6.80
2022-10-11T20:29:17.050Z,6.70
2022-10-11T20:31:44.339Z,6.70
2022-10-11T20:34:12.122Z,6.70
2022-10-11T20:36:39.477Z,6.70
2022-10-11T20:39:06.979Z,6.70
2022-10-11T20:41:40.173Z,6.70
2022-10-11T20:44:09.201Z,6.70
2022-10-11T20:46:38.803Z,6.60
2022-10-11T20:49:09.083Z,6.60
2022-10-11T20:51:38.626Z,6.50
2022-10-11T20:54:06.411Z,6.50
2022-10-11T20:56:34.169Z,6.40
2022-10-11T20:59:01.614Z,6.30
2022-10-11T21:01:34.628Z,6.30
2022-10-11T21:04:02.730Z,6.20
2022-10-11T21:06:31.644Z,6.20
2022-10-11T21:08:59.571Z,6.20
2022-10-11T21:11:28.069Z,6.20
2022-10-11T21:13:59.901Z,6.20
2022-10-11T21:16:27.708Z,6.30
2022-10-11T21:18:56.771Z,6.20
2022-10-11T21:21:24.500Z,6.30
2022-10-11T21:23:59.415Z,6.30
2022-10-11T21:26:27.686Z,6.30
2022-10-11T21:28:55.151Z,6.20
2022-10-11T21:31:23.756Z,6.20
2022-10-11T21:33:51.244Z,6.30
2022-10-11T21:36:23.005Z,6.30
2022-10-11T21:38:51.567Z,6.30
2022-10-11T21:41:22.187Z,6.30
2022-10-11T21:43:49.708Z,6.20
2022-10-11T21:46:20.416Z,6.20
2022-10-11T21:48:48.298Z,6.20
2022-10-11T21:51:27.681Z,6.20
2022-10-11T21:53:56.405Z,6.20
2022-10-11T21:56:23.916Z,6.20
2022-10-11T21:58:51.501Z,6.20
2022-10-11T22:01:19.842Z,6.20
2022-10-11T22:03:47.442Z,6.10
2022-10-11T22:06:16.144Z,6.10
2022-10-11T22:08:43.390Z,6.10
2022-10-11T22:11:11.362Z,6.10
2022-10-11T22:13:38.905Z,6.10
2022-10-11T22:16:08.580Z,6.10
2022-10-11T22:18:36.019Z,6.10
2022-10-11T22:21:08.170Z,6.00
2022-10-11T22:23:35.933Z,6.00
2022-10-11T22:26:08.072Z,6.00
2022-10-11T22:28:36.055Z,6.00
2022-10-11T22:31:05.254Z,6.00
2022-10-11T22:33:32.665Z,6.00
2022-10-11T22:36:02.582Z,6.00
2022-10-11T22:38:30.287Z,5.90
2022-10-11T22:41:00.937Z,6.00
2022-10-11T22:43:28.032Z,6.00
2022-10-11T22:45:55.314Z,6.00
2022-10-11T22:48:22.562Z,6.10
2022-10-11T22:50:49.991Z,6.10
2022-10-11T22:53:17.486Z,6.10
2022-10-11T22:55:44.740Z,6.10
2022-10-11T22:58:11.965Z,6.10
2022-10-11T23:00:39.223Z,6.10
2022-10-11T23:03:09.108Z,6.00
2022-10-11T23:05:36.564Z,6.00
2022-10-11T23:08:03.819Z,6.00
2022-10-11T23:10:31.288Z,6.00
2022-10-11T23:12:58.540Z,6.00
2022-10-11T23:15:25.868Z,5.90
2022-10-11T23:17:53.056Z,5.90
2022-10-11T23:20:20.299Z,5.90
2022-10-11T23:22:47.539Z,5.80
2022-10-11T23:25:14.768Z,5.90
2022-10-11T23:27:41.977Z,5.80
2022-10-11T23:30:10.077Z,5.80
2022-10-11T23:32:37.385Z,5.80
2022-10-11T23:35:05.479Z,5.80
2022-10-11T23:37:32.814Z,5.80
2022-10-11T23:40:00.028Z,5.80
2022-10-11T23:42:27.280Z,5.70
2022-10-11T23:44:54.633Z,5.70
2022-10-11T23:47:21.896Z,5.70
2022-10-11T23:49:49.148Z,5.70
2022-10-11T23:52:16.401Z,5.70
2022-10-11T23:54:43.562Z,5.70
2022-10-11T23:57:10.860Z,5.70
2022-10-11T23:59:37.991Z,5.70
